sensor_id;sensor_type;location;lat;lon;timestamp;temperature;humidity
14614;DHT22;7393;51.446;6.800;2023-09-19T00:02:20;17.60;1.00
14614;DHT22;7393;51.446;6.800;2023-09-19T00:04:49;17.50;1.00
14614;DHT22;7393;51.446;6.800;2023-09-19T00:07:17;17.50;1.00
14614;DHT22;7393;51.446;6.800;2023-09-19T00:09:44;17.50;99.90
14614;DHT22;7393;51.446;6.800;2023-09-19T00:12:12;17.50;1.00
14614;DHT22;7393;51.446;6.800;2023-09-19T00:14:39;17.50;12.80
14614;DHT22;7393;51.446;6.800;2023-09-19T00:17:05;17.50;99.90
14614;DHT22;7393;51.446;6.800;2023-09-19T00:19:33;17.40;99.90
14614;DHT22;7393;51.446;6.800;2023-09-19T00:22:02;17.40;29.00
14614;DHT22;7393;51.446;6.800;2023-09-19T00:24:29;17.40;1.00
14614;DHT22;7393;51.446;6.800;2023-09-19T00:26:56;17.40;1.00
14614;DHT22;7393;51.446;6.800;2023-09-19T00:29:25;17.40;1.00
14614;DHT22;7393;51.446;6.800;2023-09-19T00:31:55;17.40;73.30
14614;DHT22;7393;51.446;6.800;2023-09-19T00:34:21;17.30;1.00
14614;DHT22;7393;51.446;6.800;2023-09-19T00:36:48;17.30;1.00
14614;DHT22;7393;51.446;6.800;2023-09-19T00:39:20;17.20;1.00
14614;DHT22;7393;51.446;6.800;2023-09-19T00:41:47;17.20;56.00
14614;DHT22;7393;51.446;6.800;2023-09-19T00:44:14;17.10;1.00
14614;DHT22;7393;51.446;6.800;2023-09-19T00:46:41;17.10;99.90
14614;DHT22;7393;51.446;6.800;2023-09-19T00:49:09;17.10;99.90
14614;DHT22;7393;51.446;6.800;2023-09-19T00:51:37;17.10;99.90
14614;DHT22;7393;51.446;6.800;2023-09-19T00:54:11;17.10;99.90
14614;DHT22;7393;51.446;6.800;2023-09-19T00:56:45;17.10;1.00
14614;DHT22;7393;51.446;6.800;2023-09-19T00:59:14;17.00;36.60
14614;DHT22;7393;51.446;6.800;2023-09-19T01:01:42;17.00;99.90
14614;DHT22;7393;51.446;6.800;2023-09-19T01:04:11;17.00;99.90
14614;DHT22;7393;51.446;6.800;2023-09-19T01:06:38;16.90;1.00
14614;DHT22;7393;51.446;6.800;2023-09-19T01:09:05;16.90;1.00
14614;DHT22;7393;51.446;6.800;2023-09-19T01:11:38;16.90;1.00
14614;DHT22;7393;51.446;6.800;2023-09-19T01:14:16;16.80;99.90
14614;DHT22;7393;51.446;6.800;2023-09-19T01:16:56;16.80;1.00
14614;DHT22;7393;51.446;6.800;2023-09-19T01:19:53;16.80;1.00
14614;DHT22;7393;51.446;6.800;2023-09-19T01:22:36;16.80;1.00
14614;DHT22;7393;51.446;6.800;2023-09-19T01:25:40;16.80;1.00
14614;DHT22;7393;51.446;6.800;2023-09-19T01:28:20;16.80;1.00
14614;DHT22;7393;51.446;6.800;2023-09-19T01:30:57;16.70;99.90
14614;DHT22;7393;51.446;6.800;2023-09-19T01:33:25;16.70;99.90
14614;DHT22;7393;51.446;6.800;2023-09-19T01:35:52;16.70;99.90
14614;DHT22;7393;51.446;6.800;2023-09-19T01:38:23;16.70;99.90
14614;DHT22;7393;51.446;6.800;2023-09-19T01:40:58;16.60;99.90
14614;DHT22;7393;51.446;6.800;2023-09-19T01:43:33;16.60;1.00
14614;DHT22;7393;51.446;6.800;2023-09-19T01:46:06;16.60;1.00
14614;DHT22;7393;51.446;6.800;2023-09-19T01:48:38;16.60;1.00
14614;DHT22;7393;51.446;6.800;2023-09-19T01:51:10;16.50;1.00
14614;DHT22;7393;51.446;6.800;2023-09-19T01:53:44;16.50;50.90
14614;DHT22;7393;51.446;6.800;2023-09-19T01:56:22;16.50;99.90
14614;DHT22;7393;51.446;6.800;2023-09-19T01:58:53;16.50;99.90
14614;DHT22;7393;51.446;6.800;2023-09-19T02:01:25;16.50;99.90
14614;DHT22;7393;51.446;6.800;2023-09-19T02:03:53;16.40;99.90
14614;DHT22;7393;51.446;6.800;2023-09-19T02:06:22;16.40;99.90
14614;DHT22;7393;51.446;6.800;2023-09-19T02:08:50;16.40;1.00
14614;DHT22;7393;51.446;6.800;2023-09-19T02:11:17;16.40;99.90
14614;DHT22;7393;51.446;6.800;2023-09-19T02:13:44;16.40;1.00
14614;DHT22;7393;51.446;6.800;2023-09-19T02:16:11;16.40;1.00
14614;DHT22;7393;51.446;6.800;2023-09-19T02:18:39;16.40;1.00
14614;DHT22;7393;51.446;6.800;2023-09-19T02:21:06;16.40;99.90
14614;DHT22;7393;51.446;6.800;2023-09-19T02:23:34;16.40;1.00
14614;DHT22;7393;51.446;6.800;2023-09-19T02:26:01;16.40;99.90
14614;DHT22;7393;51.446;6.800;2023-09-19T02:28:29;16.40;1.00
14614;DHT22;7393;51.446;6.800;2023-09-19T02:30:58;16.40;99.90
14614;DHT22;7393;51.446;6.800;2023-09-19T02:33:25;16.30;1.00
14614;DHT22;7393;51.446;6.800;2023-09-19T02:35:56;16.40;1.00
14614;DHT22;7393;51.446;6.800;2023-09-19T02:38:24;16.40;1.00
14614;DHT22;7393;51.446;6.800;2023-09-19T02:40:51;16.40;99.90
14614;DHT22;7393;51.446;6.800;2023-09-19T02:43:18;16.30;1.00
14614;DHT22;7393;51.446;6.800;2023-09-19T02:45:46;16.30;1.00
14614;DHT22;7393;51.446;6.800;2023-09-19T02:48:15;16.30;99.90
14614;DHT22;7393;51.446;6.800;2023-09-19T02:50:42;16.30;99.90
14614;DHT22;7393;51.446;6.800;2023-09-19T02:53:11;16.30;1.00
14614;DHT22;7393;51.446;6.800;2023-09-19T02:55:39;16.30;1.00
14614;DHT22;7393;51.446;6.800;2023-09-19T02:58:07;16.20;1.00
14614;DHT22;7393;51.446;6.800;2023-09-19T03:00:36;16.20;99.90
14614;DHT22;7393;51.446;6.800;2023-09-19T03:03:04;16.20;1.00
14614;DHT22;7393;51.446;6.800;2023-09-19T03:05:32;16.20;99.90
14614;DHT22;7393;51.446;6.800;2023-09-19T03:07:58;16.20;41.00
14614;DHT22;7393;51.446;6.800;2023-09-19T03:10:28;16.20;99.90
14614;DHT22;7393;51.446;6.800;2023-09-19T03:12:56;16.20;99.90
14614;DHT22;7393;51.446;6.800;2023-09-19T03:15:23;16.20;99.90
14614;DHT22;7393;51.446;6.800;2023-09-19T03:17:50;16.10;2.00
14614;DHT22;7393;51.446;6.800;2023-09-19T03:20:19;16.10;1.00
14614;DHT22;7393;51.446;6.800;2023-09-19T03:22:46;16.10;99.90
14614;DHT22;7393;51.446;6.800;2023-09-19T03:25:13;16.10;99.90
14614;DHT22;7393;51.446;6.800;2023-09-19T03:27:42;16.10;99.90
14614;DHT22;7393;51.446;6.800;2023-09-19T03:30:09;16.10;1.00
14614;DHT22;7393;51.446;6.800;2023-09-19T03:32:44;16.10;1.00
14614;DHT22;7393;51.446;6.800;2023-09-19T03:35:11;16.00;99.90
14614;DHT22;7393;51.446;6.800;2023-09-19T03:37:39;16.00;99.90
14614;DHT22;7393;51.446;6.800;2023-09-19T03:40:07;16.00;1.00
14614;DHT22;7393;51.446;6.800;2023-09-19T03:42:38;16.00;99.90
14614;DHT22;7393;51.446;6.800;2023-09-19T03:45:07;16.00;1.00
14614;DHT22;7393;51.446;6.800;2023-09-19T03:47:37;15.90;1.00
14614;DHT22;7393;51.446;6.800;2023-09-19T03:50:05;15.90;99.90
14614;DHT22;7393;51.446;6.800;2023-09-19T03:52:33;15.90;99.90
14614;DHT22;7393;51.446;6.800;2023-09-19T03:55:00;15.90;1.00
14614;DHT22;7393;51.446;6.800;2023-09-19T03:57:28;15.90;1.00
14614;DHT22;7393;51.446;6.800;2023-09-19T03:59:54;16.00;99.90
14614;DHT22;7393;51.446;6.800;2023-09-19T04:02:23;15.90;1.00
14614;DHT22;7393;51.446;6.800;2023-09-19T04:04:50;15.90;99.90
14614;DHT22;7393;51.446;6.800;2023-09-19T04:07:17;15.90;1.00
14614;DHT22;7393;51.446;6.800;2023-09-19T04:09:47;15.90;99.90
14614;DHT22;7393;51.446;6.800;2023-09-19T04:12:14;15.90;99.90
14614;DHT22;7393;51.446;6.800;2023-09-19T04:14:42;15.90;79.70
14614;DHT22;7393;51.446;6.800;2023-09-19T04:17:09;15.90;1.00
14614;DHT22;7393;51.446;6.800;2023-09-19T04:19:37;15.90;1.00
14614;DHT22;7393;51.446;6.800;2023-09-19T04:22:06;15.90;99.90
14614;DHT22;7393;51.446;6.800;2023-09-19T04:24:33;15.90;1.00
14614;DHT22;7393;51.446;6.800;2023-09-19T04:27:00;15.90;1.00
14614;DHT22;7393;51.446;6.800;2023-09-19T04:29:27;15.90;99.90
14614;DHT22;7393;51.446;6.800;2023-09-19T04:31:54;15.90;1.00
14614;DHT22;7393;51.446;6.800;2023-09-19T04:34:22;15.80;99.90
14614;DHT22;7393;51.446;6.800;2023-09-19T04:36:51;15.80;1.00
14614;DHT22;7393;51.446;6.800;2023-09-19T04:39:18;15.80;1.00
14614;DHT22;7393;51.446;6.800;2023-09-19T04:41:46;15.80;1.00
14614;DHT22;7393;51.446;6.800;2023-09-19T04:44:13;15.80;1.00
14614;DHT22;7393;51.446;6.800;2023-09-19T04:46:41;15.80;36.30
14614;DHT22;7393;51.446;6.800;2023-09-19T04:49:07;15.80;99.90
14614;DHT22;7393;51.446;6.800;2023-09-19T04:51:34;15.80;99.90
14614;DHT22;7393;51.446;6.800;2023-09-19T04:54:03;15.80;1.00
14614;DHT22;7393;51.446;6.800;2023-09-19T04:56:30;15.80;94.80
14614;DHT22;7393;51.446;6.800;2023-09-19T04:58:57;15.80;99.90
14614;DHT22;7393;51.446;6.800;2023-09-19T05:01:24;15.80;1.00
14614;DHT22;7393;51.446;6.800;2023-09-19T05:03:51;15.80;1.00
14614;DHT22;7393;51.446;6.800;2023-09-19T05:06:18;15.80;1.00
14614;DHT22;7393;51.446;6.800;2023-09-19T05:08:46;15.80;1.00
14614;DHT22;7393;51.446;6.800;2023-09-19T05:11:18;15.80;81.20
14614;DHT22;7393;51.446;6.800;2023-09-19T05:13:45;15.80;1.00
14614;DHT22;7393;51.446;6.800;2023-09-19T05:16:11;15.80;99.90
14614;DHT22;7393;51.446;6.800;2023-09-19T05:18:38;15.80;1.00
14614;DHT22;7393;51.446;6.800;2023-09-19T05:21:05;15.80;1.00
14614;DHT22;7393;51.446;6.800;2023-09-19T05:23:33;15.70;45.20
14614;DHT22;7393;51.446;6.800;2023-09-19T05:25:59;15.70;1.00
14614;DHT22;7393;51.446;6.800;2023-09-19T05:28:28;15.80;63.60
14614;DHT22;7393;51.446;6.800;2023-09-19T05:30:55;15.80;1.00
14614;DHT22;7393;51.446;6.800;2023-09-19T05:33:22;15.70;1.00
14614;DHT22;7393;51.446;6.800;2023-09-19T05:35:49;15.80;1.00
14614;DHT22;7393;51.446;6.800;2023-09-19T05:38:16;15.80;1.00
14614;DHT22;7393;51.446;6.800;2023-09-19T05:40:45;15.80;1.00
14614;DHT22;7393;51.446;6.800;2023-09-19T05:43:12;15.90;1.00
14614;DHT22;7393;51.446;6.800;2023-09-19T05:45:41;15.90;1.00
14614;DHT22;7393;51.446;6.800;2023-09-19T05:48:09;15.90;45.50
14614;DHT22;7393;51.446;6.800;2023-09-19T05:50:36;15.90;1.00
14614;DHT22;7393;51.446;6.800;2023-09-19T05:53:04;16.00;99.90
14614;DHT22;7393;51.446;6.800;2023-09-19T05:55:31;16.00;1.00
14614;DHT22;7393;51.446;6.800;2023-09-19T05:57:58;16.00;84.00
14614;DHT22;7393;51.446;6.800;2023-09-19T06:00:25;16.00;1.00
14614;DHT22;7393;51.446;6.800;2023-09-19T06:02:56;16.10;99.90
14614;DHT22;7393;51.446;6.800;2023-09-19T06:05:24;16.00;99.90
14614;DHT22;7393;51.446;6.800;2023-09-19T06:07:52;16.00;99.90
14614;DHT22;7393;51.446;6.800;2023-09-19T06:10:19;16.10;1.00
14614;DHT22;7393;51.446;6.800;2023-09-19T06:12:48;16.00;1.00
14614;DHT22;7393;51.446;6.800;2023-09-19T06:15:16;16.10;1.00
14614;DHT22;7393;51.446;6.800;2023-09-19T06:17:47;16.10;99.90
14614;DHT22;7393;51.446;6.800;2023-09-19T06:20:16;16.20;99.90
14614;DHT22;7393;51.446;6.800;2023-09-19T06:22:45;16.20;99.90
14614;DHT22;7393;51.446;6.800;2023-09-19T06:25:13;16.20;1.00
14614;DHT22;7393;51.446;6.800;2023-09-19T06:27:42;16.20;99.90
14614;DHT22;7393;51.446;6.800;2023-09-19T06:30:11;16.20;1.00
14614;DHT22;7393;51.446;6.800;2023-09-19T06:32:39;16.20;47.60
14614;DHT22;7393;51.446;6.800;2023-09-19T06:35:06;16.20;99.90
14614;DHT22;7393;51.446;6.800;2023-09-19T06:37:37;16.20;1.00
14614;DHT22;7393;51.446;6.800;2023-09-19T06:40:06;16.20;99.90
14614;DHT22;7393;51.446;6.800;2023-09-19T06:42:34;16.20;1.00
14614;DHT22;7393;51.446;6.800;2023-09-19T06:45:03;16.20;1.00
14614;DHT22;7393;51.446;6.800;2023-09-19T06:47:30;16.30;34.90
14614;DHT22;7393;51.446;6.800;2023-09-19T06:49:56;16.30;54.20
14614;DHT22;7393;51.446;6.800;2023-09-19T06:52:23;16.40;1.00
14614;DHT22;7393;51.446;6.800;2023-09-19T06:54:54;16.40;1.00
14614;DHT22;7393;51.446;6.800;2023-09-19T06:57:22;16.30;99.90
14614;DHT22;7393;51.446;6.800;2023-09-19T06:59:50;16.40;1.00
14614;DHT22;7393;51.446;6.800;2023-09-19T07:02:16;16.40;99.90
14614;DHT22;7393;51.446;6.800;2023-09-19T07:04:43;16.40;1.00
14614;DHT22;7393;51.446;6.800;2023-09-19T07:07:10;16.40;1.00
14614;DHT22;7393;51.446;6.800;2023-09-19T07:09:39;16.40;1.00
14614;DHT22;7393;51.446;6.800;2023-09-19T07:12:09;16.50;9.70
14614;DHT22;7393;51.446;6.800;2023-09-19T07:14:37;16.50;1.00
14614;DHT22;7393;51.446;6.800;2023-09-19T07:17:04;16.50;1.00
14614;DHT22;7393;51.446;6.800;2023-09-19T07:19:31;16.60;99.90
14614;DHT22;7393;51.446;6.800;2023-09-19T07:21:58;16.70;1.00
14614;DHT22;7393;51.446;6.800;2023-09-19T07:24:28;16.60;46.30
14614;DHT22;7393;51.446;6.800;2023-09-19T07:26:55;16.60;1.00
14614;DHT22;7393;51.446;6.800;2023-09-19T07:29:23;16.60;99.90
14614;DHT22;7393;51.446;6.800;2023-09-19T07:31:51;16.60;99.90
14614;DHT22;7393;51.446;6.800;2023-09-19T07:34:18;16.60;99.90
14614;DHT22;7393;51.446;6.800;2023-09-19T07:36:46;16.70;1.00
14614;DHT22;7393;51.446;6.800;2023-09-19T07:39:13;16.70;99.90
14614;DHT22;7393;51.446;6.800;2023-09-19T07:41:40;16.70;1.00
14614;DHT22;7393;51.446;6.800;2023-09-19T07:44:07;16.70;1.00
14614;DHT22;7393;51.446;6.800;2023-09-19T07:46:36;16.80;1.00
14614;DHT22;7393;51.446;6.800;2023-09-19T07:49:04;16.80;99.90
14614;DHT22;7393;51.446;6.800;2023-09-19T07:51:30;16.80;99.90
14614;DHT22;7393;51.446;6.800;2023-09-19T07:53:58;16.90;99.90
14614;DHT22;7393;51.446;6.800;2023-09-19T07:56:25;16.90;99.90
14614;DHT22;7393;51.446;6.800;2023-09-19T07:58:53;16.90;1.00
14614;DHT22;7393;51.446;6.800;2023-09-19T08:01:20;17.00;1.00
14614;DHT22;7393;51.446;6.800;2023-09-19T08:03:50;17.00;1.00
14614;DHT22;7393;51.446;6.800;2023-09-19T08:06:17;17.10;1.00
14614;DHT22;7393;51.446;6.800;2023-09-19T08:08:44;17.10;1.00
14614;DHT22;7393;51.446;6.800;2023-09-19T08:11:11;17.20;1.00
14614;DHT22;7393;51.446;6.800;2023-09-19T08:13:38;17.20;99.90
14614;DHT22;7393;51.446;6.800;2023-09-19T08:16:08;17.20;1.00
14614;DHT22;7393;51.446;6.800;2023-09-19T08:18:35;17.30;99.90
14614;DHT22;7393;51.446;6.800;2023-09-19T08:21:04;17.30;1.00
14614;DHT22;7393;51.446;6.800;2023-09-19T08:23:32;17.30;1.00
14614;DHT22;7393;51.446;6.800;2023-09-19T08:25:58;17.30;99.90
14614;DHT22;7393;51.446;6.800;2023-09-19T08:28:28;17.40;1.00
14614;DHT22;7393;51.446;6.800;2023-09-19T08:30:55;17.40;99.90
14614;DHT22;7393;51.446;6.800;2023-09-19T08:33:23;17.50;99.90
14614;DHT22;7393;51.446;6.800;2023-09-19T08:35:50;17.50;99.90
14614;DHT22;7393;51.446;6.800;2023-09-19T08:38:18;17.50;99.90
14614;DHT22;7393;51.446;6.800;2023-09-19T08:40:45;17.60;99.90
14614;DHT22;7393;51.446;6.800;2023-09-19T08:43:12;17.70;69.70
14614;DHT22;7393;51.446;6.800;2023-09-19T08:45:39;17.70;1.00
14614;DHT22;7393;51.446;6.800;2023-09-19T08:48:16;17.80;99.90
14614;DHT22;7393;51.446;6.800;2023-09-19T08:50:49;17.90;99.90
14614;DHT22;7393;51.446;6.800;2023-09-19T08:53:26;18.00;99.90
14614;DHT22;7393;51.446;6.800;2023-09-19T08:55:55;18.10;1.00
14614;DHT22;7393;51.446;6.800;2023-09-19T08:58:26;18.10;1.00
14614;DHT22;7393;51.446;6.800;2023-09-19T09:00:56;18.20;86.90
14614;DHT22;7393;51.446;6.800;2023-09-19T09:03:27;18.20;99.90
14614;DHT22;7393;51.446;6.800;2023-09-19T09:05:58;18.40;98.00
14614;DHT22;7393;51.446;6.800;2023-09-19T09:08:27;18.40;1.00
14614;DHT22;7393;51.446;6.800;2023-09-19T09:10:55;18.40;1.00
14614;DHT22;7393;51.446;6.800;2023-09-19T09:13:24;18.50;1.00
14614;DHT22;7393;51.446;6.800;2023-09-19T09:15:51;18.60;1.00
14614;DHT22;7393;51.446;6.800;2023-09-19T09:18:19;18.70;1.00
14614;DHT22;7393;51.446;6.800;2023-09-19T09:20:46;18.70;99.90
14614;DHT22;7393;51.446;6.800;2023-09-19T09:23:14;18.80;99.90
14614;DHT22;7393;51.446;6.800;2023-09-19T09:25:50;18.80;99.90
14614;DHT22;7393;51.446;6.800;2023-09-19T09:28:22;18.90;99.90
14614;DHT22;7393;51.446;6.800;2023-09-19T09:30:49;18.90;99.90
14614;DHT22;7393;51.446;6.800;2023-09-19T09:33:16;19.00;99.90
14614;DHT22;7393;51.446;6.800;2023-09-19T09:35:51;19.00;99.90
14614;DHT22;7393;51.446;6.800;2023-09-19T09:38:20;19.10;99.90
14614;DHT22;7393;51.446;6.800;2023-09-19T09:40:50;19.10;99.90
14614;DHT22;7393;51.446;6.800;2023-09-19T09:43:29;19.20;99.90
14614;DHT22;7393;51.446;6.800;2023-09-19T09:46:11;19.30;99.90
14614;DHT22;7393;51.446;6.800;2023-09-19T09:48:56;19.30;99.90
14614;DHT22;7393;51.446;6.800;2023-09-19T09:51:59;19.30;99.90
14614;DHT22;7393;51.446;6.800;2023-09-19T09:54:32;19.40;99.90
14614;DHT22;7393;51.446;6.800;2023-09-19T09:57:04;19.40;99.90
14614;DHT22;7393;51.446;6.800;2023-09-19T09:59:46;19.50;99.90
14614;DHT22;7393;51.446;6.800;2023-09-19T10:02:14;19.50;99.90
14614;DHT22;7393;51.446;6.800;2023-09-19T10:04:46;19.60;99.90
14614;DHT22;7393;51.446;6.800;2023-09-19T10:07:29;19.70;99.90
14614;DHT22;7393;51.446;6.800;2023-09-19T10:10:04;19.70;99.90
14614;DHT22;7393;51.446;6.800;2023-09-19T10:12:43;19.80;99.90
14614;DHT22;7393;51.446;6.800;2023-09-19T10:15:12;20.00;99.90
14614;DHT22;7393;51.446;6.800;2023-09-19T10:17:43;20.10;80.80
14614;DHT22;7393;51.446;6.800;2023-09-19T10:20:13;20.20;55.80
14614;DHT22;7393;51.446;6.800;2023-09-19T10:22:54;20.20;30.00
14614;DHT22;7393;51.446;6.800;2023-09-19T10:25:25;20.20;28.20
14614;DHT22;7393;51.446;6.800;2023-09-19T10:27:54;20.30;17.50
14614;DHT22;7393;51.446;6.800;2023-09-19T10:30:24;20.30;11.40
14614;DHT22;7393;51.446;6.800;2023-09-19T10:33:00;20.40;1.00
14614;DHT22;7393;51.446;6.800;2023-09-19T10:35:28;20.40;1.00
14614;DHT22;7393;51.446;6.800;2023-09-19T10:37:59;20.40;1.00
14614;DHT22;7393;51.446;6.800;2023-09-19T10:40:27;20.40;1.00
14614;DHT22;7393;51.446;6.800;2023-09-19T10:43:02;20.50;1.00
14614;DHT22;7393;51.446;6.800;2023-09-19T10:45:32;20.50;1.00
14614;DHT22;7393;51.446;6.800;2023-09-19T10:47:59;20.50;1.00
14614;DHT22;7393;51.446;6.800;2023-09-19T10:50:30;20.40;1.00
14614;DHT22;7393;51.446;6.800;2023-09-19T10:53:01;20.50;1.00
14614;DHT22;7393;51.446;6.800;2023-09-19T10:55:31;20.50;1.00
14614;DHT22;7393;51.446;6.800;2023-09-19T10:57:59;20.60;1.00
14614;DHT22;7393;51.446;6.800;2023-09-19T11:00:29;20.50;1.00
14614;DHT22;7393;51.446;6.800;2023-09-19T11:03:19;20.60;1.00
14614;DHT22;7393;51.446;6.800;2023-09-19T11:06:07;20.70;1.00
14614;DHT22;7393;51.446;6.800;2023-09-19T11:08:56;20.80;1.00
14614;DHT22;7393;51.446;6.800;2023-09-19T11:11:48;20.90;1.00
14614;DHT22;7393;51.446;6.800;2023-09-19T11:14:29;20.90;1.00
14614;DHT22;7393;51.446;6.800;2023-09-19T11:17:30;20.80;1.00
14614;DHT22;7393;51.446;6.800;2023-09-19T11:20:22;20.70;1.00
14614;DHT22;7393;51.446;6.800;2023-09-19T11:23:20;20.70;1.00
14614;DHT22;7393;51.446;6.800;2023-09-19T11:25:52;20.80;1.00
14614;DHT22;7393;51.446;6.800;2023-09-19T11:28:33;20.90;1.00
14614;DHT22;7393;51.446;6.800;2023-09-19T11:34:38;21.00;1.00
14614;DHT22;7393;51.446;6.800;2023-09-19T11:40:06;21.10;1.00
14614;DHT22;7393;51.446;6.800;2023-09-19T11:42:43;21.10;1.00
14614;DHT22;7393;51.446;6.800;2023-09-19T11:48:24;21.00;1.00
14614;DHT22;7393;51.446;6.800;2023-09-19T11:50:52;21.10;1.00
14614;DHT22;7393;51.446;6.800;2023-09-19T11:53:20;21.20;1.00
14614;DHT22;7393;51.446;6.800;2023-09-19T11:55:47;21.30;1.00
14614;DHT22;7393;51.446;6.800;2023-09-19T11:58:16;21.30;1.00
14614;DHT22;7393;51.446;6.800;2023-09-19T12:00:45;21.40;1.00
14614;DHT22;7393;51.446;6.800;2023-09-19T12:03:12;21.40;1.00
14614;DHT22;7393;51.446;6.800;2023-09-19T12:05:40;21.40;1.00
14614;DHT22;7393;51.446;6.800;2023-09-19T12:08:07;21.40;1.00
14614;DHT22;7393;51.446;6.800;2023-09-19T12:10:45;21.40;1.00
14614;DHT22;7393;51.446;6.800;2023-09-19T12:13:17;21.30;1.00
14614;DHT22;7393;51.446;6.800;2023-09-19T12:15:44;21.40;1.00
14614;DHT22;7393;51.446;6.800;2023-09-19T12:18:26;21.50;1.00
14614;DHT22;7393;51.446;6.800;2023-09-19T12:20:53;21.70;1.00
14614;DHT22;7393;51.446;6.800;2023-09-19T12:23:20;21.70;1.00
14614;DHT22;7393;51.446;6.800;2023-09-19T12:25:47;21.80;1.00
14614;DHT22;7393;51.446;6.800;2023-09-19T12:28:19;21.80;1.00
14614;DHT22;7393;51.446;6.800;2023-09-19T12:30:47;21.90;1.00
14614;DHT22;7393;51.446;6.800;2023-09-19T12:33:17;22.00;1.00
14614;DHT22;7393;51.446;6.800;2023-09-19T12:35:45;22.10;1.00
14614;DHT22;7393;51.446;6.800;2023-09-19T12:38:23;22.20;1.00
14614;DHT22;7393;51.446;6.800;2023-09-19T12:40:53;22.30;1.00
14614;DHT22;7393;51.446;6.800;2023-09-19T12:43:22;22.50;1.00
14614;DHT22;7393;51.446;6.800;2023-09-19T12:45:49;22.70;1.00
14614;DHT22;7393;51.446;6.800;2023-09-19T12:48:20;22.70;1.00
14614;DHT22;7393;51.446;6.800;2023-09-19T12:51:02;22.70;1.00
14614;DHT22;7393;51.446;6.800;2023-09-19T12:53:32;22.60;1.00
14614;DHT22;7393;51.446;6.800;2023-09-19T12:56:01;22.60;1.00
14614;DHT22;7393;51.446;6.800;2023-09-19T12:58:32;22.60;1.00
14614;DHT22;7393;51.446;6.800;2023-09-19T13:01:00;22.60;1.00
14614;DHT22;7393;51.446;6.800;2023-09-19T13:03:28;22.60;1.00
14614;DHT22;7393;51.446;6.800;2023-09-19T13:05:58;22.60;1.00
14614;DHT22;7393;51.446;6.800;2023-09-19T13:08:27;22.50;1.00
14614;DHT22;7393;51.446;6.800;2023-09-19T13:11:06;22.70;1.00
14614;DHT22;7393;51.446;6.800;2023-09-19T13:13:37;22.60;1.00
14614;DHT22;7393;51.446;6.800;2023-09-19T13:16:04;22.60;1.00
14614;DHT22;7393;51.446;6.800;2023-09-19T13:18:47;22.50;1.00
14614;DHT22;7393;51.446;6.800;2023-09-19T13:21:17;22.40;1.00
14614;DHT22;7393;51.446;6.800;2023-09-19T13:23:51;22.30;1.00
14614;DHT22;7393;51.446;6.800;2023-09-19T13:26:18;22.20;1.00
14614;DHT22;7393;51.446;6.800;2023-09-19T13:28:47;22.10;1.00
14614;DHT22;7393;51.446;6.800;2023-09-19T13:31:15;22.10;1.00
14614;DHT22;7393;51.446;6.800;2023-09-19T13:33:45;22.00;1.00
14614;DHT22;7393;51.446;6.800;2023-09-19T13:36:12;21.90;1.00
14614;DHT22;7393;51.446;6.800;2023-09-19T13:38:40;22.00;1.00
14614;DHT22;7393;51.446;6.800;2023-09-19T13:41:08;21.90;1.00
14614;DHT22;7393;51.446;6.800;2023-09-19T13:43:35;21.90;1.00
14614;DHT22;7393;51.446;6.800;2023-09-19T13:46:04;21.90;1.00
14614;DHT22;7393;51.446;6.800;2023-09-19T13:48:33;21.90;1.00
14614;DHT22;7393;51.446;6.800;2023-09-19T13:51:01;21.80;1.00
14614;DHT22;7393;51.446;6.800;2023-09-19T13:53:28;21.80;1.00
14614;DHT22;7393;51.446;6.800;2023-09-19T13:55:55;21.80;1.00
14614;DHT22;7393;51.446;6.800;2023-09-19T13:58:22;21.80;1.00
14614;DHT22;7393;51.446;6.800;2023-09-19T14:00:49;21.70;1.00
14614;DHT22;7393;51.446;6.800;2023-09-19T14:03:17;21.60;1.00
14614;DHT22;7393;51.446;6.800;2023-09-19T14:05:46;21.50;1.00
14614;DHT22;7393;51.446;6.800;2023-09-19T14:08:13;21.40;1.00
14614;DHT22;7393;51.446;6.800;2023-09-19T14:10:40;21.40;1.00
14614;DHT22;7393;51.446;6.800;2023-09-19T14:13:07;21.40;1.00
14614;DHT22;7393;51.446;6.800;2023-09-19T14:15:36;21.40;1.00
14614;DHT22;7393;51.446;6.800;2023-09-19T14:18:04;21.40;1.00
14614;DHT22;7393;51.446;6.800;2023-09-19T14:20:32;21.40;1.00
14614;DHT22;7393;51.446;6.800;2023-09-19T14:22:59;21.30;1.00
14614;DHT22;7393;51.446;6.800;2023-09-19T14:25:27;21.30;1.00
14614;DHT22;7393;51.446;6.800;2023-09-19T14:27:54;21.20;1.00
14614;DHT22;7393;51.446;6.800;2023-09-19T14:30:21;21.30;1.00
14614;DHT22;7393;51.446;6.800;2023-09-19T14:32:49;21.10;1.00
14614;DHT22;7393;51.446;6.800;2023-09-19T14:35:16;21.10;1.00
14614;DHT22;7393;51.446;6.800;2023-09-19T14:37:44;21.00;1.00
14614;DHT22;7393;51.446;6.800;2023-09-19T14:40:11;21.00;1.00
14614;DHT22;7393;51.446;6.800;2023-09-19T14:42:41;21.10;1.00
14614;DHT22;7393;51.446;6.800;2023-09-19T14:45:10;21.10;1.00
14614;DHT22;7393;51.446;6.800;2023-09-19T14:47:37;21.10;1.00
14614;DHT22;7393;51.446;6.800;2023-09-19T14:50:05;21.10;1.00
14614;DHT22;7393;51.446;6.800;2023-09-19T14:52:32;21.10;1.00
14614;DHT22;7393;51.446;6.800;2023-09-19T14:55:00;21.10;1.00
14614;DHT22;7393;51.446;6.800;2023-09-19T14:57:28;21.10;1.00
14614;DHT22;7393;51.446;6.800;2023-09-19T14:59:55;21.10;1.00
14614;DHT22;7393;51.446;6.800;2023-09-19T15:02:21;21.00;1.00
14614;DHT22;7393;51.446;6.800;2023-09-19T15:04:48;21.00;1.00
14614;DHT22;7393;51.446;6.800;2023-09-19T15:07:16;21.00;1.00
14614;DHT22;7393;51.446;6.800;2023-09-19T15:09:43;20.90;1.00
14614;DHT22;7393;51.446;6.800;2023-09-19T15:12:12;20.80;1.00
14614;DHT22;7393;51.446;6.800;2023-09-19T15:14:40;20.80;1.00
14614;DHT22;7393;51.446;6.800;2023-09-19T15:17:08;20.90;1.00
14614;DHT22;7393;51.446;6.800;2023-09-19T15:19:34;20.80;1.00
14614;DHT22;7393;51.446;6.800;2023-09-19T15:22:03;20.80;1.00
14614;DHT22;7393;51.446;6.800;2023-09-19T15:24:30;20.80;1.00
14614;DHT22;7393;51.446;6.800;2023-09-19T15:26:57;20.80;1.00
14614;DHT22;7393;51.446;6.800;2023-09-19T15:29:25;20.80;1.00
14614;DHT22;7393;51.446;6.800;2023-09-19T15:31:54;20.80;1.00
14614;DHT22;7393;51.446;6.800;2023-09-19T15:34:22;20.80;1.00
14614;DHT22;7393;51.446;6.800;2023-09-19T15:36:49;20.80;1.00
14614;DHT22;7393;51.446;6.800;2023-09-19T15:39:17;20.90;1.00
14614;DHT22;7393;51.446;6.800;2023-09-19T15:41:45;20.90;1.00
14614;DHT22;7393;51.446;6.800;2023-09-19T15:44:13;20.90;1.00
14614;DHT22;7393;51.446;6.800;2023-09-19T15:46:42;20.90;1.00
14614;DHT22;7393;51.446;6.800;2023-09-19T15:49:22;20.90;1.00
14614;DHT22;7393;51.446;6.800;2023-09-19T15:51:49;20.90;1.00
14614;DHT22;7393;51.446;6.800;2023-09-19T15:54:17;20.90;1.00
14614;DHT22;7393;51.446;6.800;2023-09-19T15:56:45;20.90;1.00
14614;DHT22;7393;51.446;6.800;2023-09-19T15:59:12;20.90;1.00
14614;DHT22;7393;51.446;6.800;2023-09-19T16:01:42;20.90;1.00
14614;DHT22;7393;51.446;6.800;2023-09-19T16:04:10;20.90;1.00
14614;DHT22;7393;51.446;6.800;2023-09-19T16:06:38;20.90;1.00
14614;DHT22;7393;51.446;6.800;2023-09-19T16:09:09;20.80;1.00
14614;DHT22;7393;51.446;6.800;2023-09-19T16:11:36;20.80;1.00
14614;DHT22;7393;51.446;6.800;2023-09-19T16:14:03;20.80;1.00
14614;DHT22;7393;51.446;6.800;2023-09-19T16:16:31;20.70;1.00
14614;DHT22;7393;51.446;6.800;2023-09-19T16:19:02;20.70;1.00
14614;DHT22;7393;51.446;6.800;2023-09-19T16:21:31;20.70;1.00
14614;DHT22;7393;51.446;6.800;2023-09-19T16:23:59;20.70;1.00